East Quogue, New York
Current Conditions -  °F | °C
As of 6:53 AM on Wednesday 28 Jan 2015 (Local Time) from KFOK Reporting Station
Overcast Overcast  
Wind Chill: -17°   Ceiling: 3000
Heat Index: -8°   Visibility: 10mi
Dew Point: -14°   Wind: 17mph
Humidity: 62%   Direction: 330°NNW
Pressure: 29.93"   Gusts: NA
Location:  40.85°N, 72.58°W
Report Text: KFOK 281153Z 33015KT 10SM BKN030 OVC120 M08/M14 A2993 RMK AO2 SLP136 60000 T10831144 11083 21089 53022 $
Loading
Personal Weather Stations






























Interactive Weather Map New forecast layout! Learn more

10-Day Weather Forecast

Advertisements
Track Severe Weather on mobile